Monclova International Airport
MMMV : now visible

Airfield :











YOU CAN JOIN US ON...

 
LOGIN :

Register | Disclaimer

   EN    FR    IT 

 









Legend :    VFR   Marginal VFR   IFR   Intensive IFR   Very Intensive IFR
Visi :
Ceiling :
>= 8 km
>= 3000ft
5 to 8 km
1000 to 3000 ft
1500m to 5 km
500 to 1000 ft
800 to 1500m
200 to 500 ft
< 800m
< 200 ft
Symbols :   Thunderstorms  Fog  Heavy snow  Heavy precipitations  Wind > 20 kt






- Airport Elevation : 1864 ft
- IATA code : LOV


MMMV - Monclova International

METAR N/A
TAF TAF MMMV
Valid from the 25 at 18:00 until the 26 at 18:00 UTC


251724Z 2518/2618 12005KT P6SM SCT020
FM260300 12005KT P6SM BKN020
FM260800 36010KT 4SM RA OVC012
TEMPO 2608/2612 1SM TSRA BKN015CB
FM261200 36010KT 5SM RA OVC012
FM261700 36010KT P6SM BKN030
MMFR FIR / North America



MET'MAP, your aeronautical weather chart ! - Copyright ORBIFLY December 2007 - Disclaimer

ORBIFLY MET'MAP TEAM :

Programming & Development : Alexandra Zaïnal
Concept & original design : Baudouin d'Aumeries
Assistance for programming : Marc-Olivier Méhu
Technical & hardware support : Manuel Goepfert

Contact : metmap@orbifly.com




SOURCES & CREDITS :

   NOAA       Earth
Advisory